createdAt,value
2022-10-19T00:00:37.490Z,93.76
2022-10-19T00:01:37.539Z,93.86
2022-10-19T00:02:37.471Z,94.17
2022-10-19T00:03:37.540Z,94.27
2022-10-19T00:04:37.427Z,94.27
2022-10-19T00:05:37.452Z,94.17
2022-10-19T00:06:37.445Z,94.07
2022-10-19T00:07:37.428Z,94.07
2022-10-19T00:08:37.422Z,94.07
2022-10-19T00:09:37.379Z,94.07
2022-10-19T00:10:37.402Z,93.86
2022-10-19T00:11:37.373Z,93.86
2022-10-19T00:12:37.368Z,94.07
2022-10-19T00:13:37.345Z,94.17
2022-10-19T00:14:37.338Z,94.27
2022-10-19T00:15:37.300Z,94.17
2022-10-19T00:16:37.355Z,94.27
2022-10-19T00:17:37.297Z,94.23
2022-10-19T00:18:37.316Z,94.12
2022-10-19T00:19:37.251Z,94.17
2022-10-19T00:20:37.254Z,94.12
2022-10-19T00:21:37.381Z,94.23
2022-10-19T00:22:37.234Z,94.37
2022-10-19T00:23:37.212Z,94.57
2022-10-19T00:24:37.202Z,94.53
2022-10-19T00:25:37.208Z,94.57
2022-10-19T00:26:37.194Z,94.43
2022-10-19T00:27:37.207Z,94.32
2022-10-19T00:28:37.195Z,94.23
2022-10-19T00:29:37.136Z,93.92
2022-10-19T00:30:37.141Z,93.71
2022-10-19T00:31:37.137Z,93.62
2022-10-19T00:32:37.107Z,93.62
2022-10-19T00:33:37.158Z,93.86
2022-10-19T00:34:37.078Z,94.27
2022-10-19T00:35:37.080Z,93.86
2022-10-19T00:36:37.090Z,93.76
2022-10-19T00:37:37.059Z,93.55
2022-10-19T00:38:37.081Z,93.66
2022-10-19T00:39:37.030Z,93.66
2022-10-19T00:40:37.006Z,93.45
2022-10-19T00:41:37.034Z,92.94
2022-10-19T00:42:37.008Z,93.05
2022-10-19T00:43:36.978Z,93.25
2022-10-19T00:44:37.085Z,93.25
2022-10-19T00:45:36.961Z,93.25
2022-10-19T00:46:36.965Z,93.15
2022-10-19T00:47:36.961Z,93.35
2022-10-19T00:48:36.941Z,93.45
2022-10-19T00:49:36.944Z,93.35
2022-10-19T00:50:36.934Z,93.15
2022-10-19T00:51:36.883Z,92.94
2022-10-19T00:52:37.046Z,92.64
2022-10-19T00:53:36.860Z,92.54
2022-10-19T00:54:36.894Z,92.44
2022-10-19T00:55:36.875Z,92.44
2022-10-19T00:56:36.845Z,92.54
2022-10-19T00:57:36.825Z,92.54
2022-10-19T00:58:36.836Z,92.64
2022-10-19T00:59:36.806Z,92.74
2022-10-19T01:00:36.773Z,92.74
2022-10-19T01:01:36.816Z,92.54
2022-10-19T01:02:37.030Z,92.79
2022-10-19T01:03:36.773Z,93.09
2022-10-19T01:04:36.727Z,93.40
2022-10-19T01:05:36.730Z,93.50
2022-10-19T01:06:36.784Z,93.60
2022-10-19T01:07:36.990Z,93.70
2022-10-19T01:08:36.703Z,93.80
2022-10-19T01:09:36.709Z,93.70
2022-10-19T01:10:36.681Z,93.40
2022-10-19T01:11:36.675Z,93.40
2022-10-19T01:12:36.626Z,93.40
2022-10-19T01:13:36.641Z,93.40
2022-10-19T01:14:36.638Z,93.40
2022-10-19T01:15:36.610Z,93.29
2022-10-19T01:16:36.607Z,93.40
2022-10-19T01:17:36.773Z,93.44
2022-10-19T01:18:36.578Z,93.44
2022-10-19T01:19:36.592Z,93.54
2022-10-19T01:20:36.551Z,92.72
2022-10-19T01:21:36.545Z,92.42
2022-10-19T01:22:36.532Z,92.22
2022-10-19T01:23:36.550Z,92.11
2022-10-19T01:24:39.835Z,91.91
2022-10-19T01:25:36.503Z,91.71
2022-10-19T01:26:36.484Z,91.91
2022-10-19T01:27:36.618Z,91.81
2022-10-19T01:28:36.539Z,92.01
2022-10-19T01:29:36.441Z,92.36
2022-10-19T01:30:36.444Z,92.42
2022-10-19T01:31:36.412Z,92.52
2022-10-19T01:32:36.402Z,92.72
2022-10-19T01:33:36.392Z,92.93
2022-10-19T01:34:36.436Z,92.93
2022-10-19T01:35:36.365Z,92.11
2022-10-19T01:36:36.374Z,92.01
2022-10-19T01:37:36.797Z,91.96
2022-10-19T01:38:36.653Z,92.05
2022-10-19T01:39:36.392Z,92.46
2022-10-19T01:40:37.344Z,92.16
2022-10-19T01:41:36.308Z,91.96
2022-10-19T01:42:36.295Z,91.75
2022-10-19T01:43:36.284Z,91.55
2022-10-19T01:44:36.296Z,91.35
2022-10-19T01:45:36.289Z,91.44
2022-10-19T01:46:36.305Z,91.55
2022-10-19T01:47:36.518Z,91.65
2022-10-19T01:48:36.230Z,91.55
2022-10-19T01:49:36.221Z,91.44
2022-10-19T01:50:36.265Z,91.55
2022-10-19T01:51:36.197Z,91.75
2022-10-19T01:52:36.431Z,91.75
2022-10-19T01:53:36.181Z,91.96
2022-10-19T01:54:36.162Z,91.96
2022-10-19T01:55:36.165Z,91.59
2022-10-19T01:56:36.129Z,91.28
2022-10-19T01:57:36.119Z,91.94
2022-10-19T01:58:36.108Z,92.35
2022-10-19T01:59:36.110Z,92.69
2022-10-19T02:00:36.172Z,92.80
2022-10-19T02:01:36.073Z,92.90
2022-10-19T02:02:36.363Z,92.80
2022-10-19T02:03:36.054Z,92.94
2022-10-19T02:04:36.065Z,93.45
2022-10-19T02:05:36.023Z,93.45
2022-10-19T02:06:36.064Z,93.25
2022-10-19T02:07:36.002Z,93.15
2022-10-19T02:08:35.982Z,93.45
2022-10-19T02:09:35.981Z,93.55
2022-10-19T02:10:35.966Z,93.05
2022-10-19T02:11:35.966Z,92.94
2022-10-19T02:12:36.398Z,93.05
2022-10-19T02:13:35.923Z,92.94
2022-10-19T02:14:35.947Z,92.33
2022-10-19T02:15:35.904Z,92.23
2022-10-19T02:16:35.915Z,92.68
2022-10-19T02:17:35.914Z,92.68
2022-10-19T02:18:35.878Z,92.78
2022-10-19T02:19:35.881Z,92.88
2022-10-19T02:20:35.845Z,92.58
2022-10-19T02:21:35.898Z,92.68
2022-10-19T02:22:36.105Z,92.58
2022-10-19T02:23:35.807Z,92.62
2022-10-19T02:24:35.822Z,92.83
2022-10-19T02:25:35.820Z,92.72
2022-10-19T02:26:35.790Z,92.83
2022-10-19T02:27:35.810Z,93.13
2022-10-19T02:28:35.762Z,93.03
2022-10-19T02:29:35.762Z,93.03
2022-10-19T02:30:35.761Z,93.03
2022-10-19T02:31:35.721Z,92.93
2022-10-19T02:32:35.899Z,93.03
2022-10-19T02:33:35.727Z,93.24
2022-10-19T02:34:35.681Z,93.33
2022-10-19T02:35:35.699Z,93.19
2022-10-19T02:36:35.658Z,93.09
2022-10-19T02:38:35.641Z,93.40
2022-10-19T02:39:35.651Z,92.68
2022-10-19T02:40:35.634Z,92.47
2022-10-19T02:41:35.603Z,92.11
2022-10-19T02:42:35.967Z,91.70
2022-10-19T02:43:35.595Z,91.70
2022-10-19T02:44:35.628Z,92.25
2022-10-19T02:45:35.582Z,93.07
2022-10-19T02:46:35.587Z,93.69
2022-10-19T02:47:35.861Z,94.10
2022-10-19T02:48:35.533Z,94.30
2022-10-19T02:49:35.556Z,94.36
2022-10-19T02:50:35.521Z,94.46
2022-10-19T02:51:35.515Z,94.36
2022-10-19T02:52:35.478Z,94.26
2022-10-19T02:53:35.464Z,94.06
2022-10-19T02:54:35.445Z,93.91
2022-10-19T02:55:35.538Z,93.70
2022-10-19T02:56:35.445Z,93.70
2022-10-19T02:57:35.663Z,93.70
2022-10-19T02:58:35.406Z,93.60
2022-10-19T02:59:35.396Z,93.60
2022-10-19T03:00:35.418Z,93.60
2022-10-19T03:01:35.439Z,93.70
2022-10-19T03:02:35.370Z,93.60
2022-10-19T03:03:35.392Z,93.50
2022-10-19T03:04:35.396Z,93.50
2022-10-19T03:05:35.352Z,93.50
2022-10-19T03:06:35.328Z,93.50
2022-10-19T03:07:35.588Z,93.70
2022-10-19T03:08:35.332Z,93.60
2022-10-19T03:09:35.292Z,93.40
2022-10-19T03:10:35.278Z,93.09
2022-10-19T03:11:35.279Z,92.47
2022-10-19T03:12:35.263Z,91.96
2022-10-19T03:13:35.273Z,92.37
2022-10-19T03:14:35.251Z,91.56
2022-10-19T03:15:35.211Z,90.78
2022-10-19T03:16:35.220Z,90.99
2022-10-19T03:17:35.591Z,91.74
2022-10-19T03:18:35.172Z,91.85
2022-10-19T03:19:35.162Z,91.85
2022-10-19T03:20:35.172Z,91.74
2022-10-19T03:21:35.175Z,91.64
2022-10-19T03:22:35.155Z,91.64
2022-10-19T03:23:35.131Z,91.85
2022-10-19T03:24:35.136Z,92.05
2022-10-19T03:25:35.113Z,91.95
2022-10-19T03:26:35.103Z,92.15
2022-10-19T03:27:35.426Z,91.74
2022-10-19T03:28:35.181Z,91.85
2022-10-19T03:29:35.054Z,91.80
2022-10-19T03:30:35.035Z,91.60
2022-10-19T03:31:35.054Z,91.50
2022-10-19T03:32:35.015Z,91.29
2022-10-19T03:33:35.017Z,91.19
2022-10-19T03:34:35.013Z,91.05
2022-10-19T03:35:35.015Z,90.74
2022-10-19T03:36:34.966Z,90.64
2022-10-19T03:37:35.335Z,90.43
2022-10-19T03:38:34.947Z,90.12
2022-10-19T03:39:34.959Z,90.19
2022-10-19T03:40:34.977Z,90.19
2022-10-19T03:41:34.930Z,90.39
2022-10-19T03:42:34.921Z,90.70
2022-10-19T03:43:34.901Z,90.70
2022-10-19T03:44:34.891Z,90.80
2022-10-19T03:45:34.877Z,90.70
2022-10-19T03:46:34.920Z,90.70
2022-10-19T03:47:35.175Z,90.80
2022-10-19T03:48:34.829Z,90.70
2022-10-19T03:49:36.860Z,90.90
2022-10-19T03:50:34.824Z,91.20
2022-10-19T03:51:34.822Z,91.52
2022-10-19T03:52:34.842Z,91.72
2022-10-19T03:53:34.797Z,91.72
2022-10-19T03:54:34.781Z,91.92
2022-10-19T03:55:34.812Z,92.02
2022-10-19T03:56:34.765Z,92.13
2022-10-19T03:57:35.088Z,92.33
2022-10-19T03:58:34.720Z,92.23
2022-10-19T03:59:34.723Z,92.13
2022-10-19T04:00:34.715Z,92.33
2022-10-19T04:01:34.731Z,92.54
2022-10-19T04:02:34.681Z,92.43
2022-10-19T04:04:34.673Z,92.33
2022-10-19T04:05:34.646Z,92.23
2022-10-19T04:06:34.624Z,91.92
2022-10-19T04:07:34.824Z,91.82
2022-10-19T04:08:34.617Z,91.31
2022-10-19T04:09:34.584Z,91.61
2022-10-19T04:10:34.605Z,91.82
2022-10-19T04:11:34.630Z,91.92
2022-10-19T04:12:34.619Z,92.13
2022-10-19T04:13:34.555Z,92.02
2022-10-19T04:14:52.606Z,92.13
2022-10-19T04:15:35.532Z,92.43
2022-10-19T04:16:34.516Z,92.43
2022-10-19T04:17:34.861Z,92.54
2022-10-19T04:18:34.507Z,92.54
2022-10-19T04:19:34.509Z,92.64
2022-10-19T04:20:34.468Z,92.64
2022-10-19T04:21:34.474Z,92.84
2022-10-19T04:22:34.508Z,93.05
2022-10-19T04:23:34.459Z,92.74
2022-10-19T04:24:34.472Z,92.64
2022-10-19T04:25:34.401Z,92.84
2022-10-19T04:26:34.421Z,92.84
2022-10-19T04:27:34.637Z,92.84
2022-10-19T04:28:34.484Z,92.74
2022-10-19T04:29:34.351Z,92.54
2022-10-19T04:30:34.364Z,92.33
2022-10-19T04:31:34.362Z,92.13
2022-10-19T04:32:34.344Z,92.02
2022-10-19T04:33:34.435Z,91.92
2022-10-19T04:34:36.429Z,91.82
2022-10-19T04:35:35.307Z,91.82
2022-10-19T04:36:34.316Z,91.72
2022-10-19T04:37:34.617Z,91.72
2022-10-19T04:38:34.280Z,91.82
2022-10-19T04:39:34.309Z,91.82
2022-10-19T04:40:34.257Z,91.92
2022-10-19T04:41:34.245Z,91.92
2022-10-19T04:42:34.238Z,91.92
2022-10-19T04:43:34.194Z,91.92
2022-10-19T04:44:34.246Z,91.82
2022-10-19T04:45:34.185Z,91.52
2022-10-19T04:46:34.203Z,91.52
2022-10-19T04:47:34.263Z,91.61
2022-10-19T04:48:34.144Z,91.61
2022-10-19T04:49:34.126Z,91.82
2022-10-19T04:50:34.160Z,92.13
2022-10-19T04:51:34.116Z,92.13
2022-10-19T04:52:34.117Z,92.33
2022-10-19T04:53:34.093Z,92.33
2022-10-19T04:54:34.109Z,92.23
2022-10-19T04:55:34.155Z,92.23
2022-10-19T04:56:34.067Z,92.17
2022-10-19T04:57:34.259Z,92.27
2022-10-19T04:58:34.042Z,92.37
2022-10-19T04:59:34.022Z,92.47
2022-10-19T05:00:34.062Z,92.58
2022-10-19T05:01:34.049Z,92.78
2022-10-19T05:02:34.015Z,92.78
2022-10-19T05:03:33.981Z,92.68
2022-10-19T05:04:33.986Z,92.68
2022-10-19T05:05:33.940Z,92.58
2022-10-19T05:06:33.990Z,92.68
2022-10-19T05:07:34.152Z,92.68
2022-10-19T05:08:33.922Z,92.68
2022-10-19T05:09:33.909Z,92.99
2022-10-19T05:10:33.894Z,93.09
2022-10-19T05:11:33.904Z,93.19
2022-10-19T05:12:33.862Z,92.88
2022-10-19T05:13:33.908Z,92.88
2022-10-19T05:14:35.023Z,92.78
2022-10-19T05:15:33.826Z,92.37
2022-10-19T05:16:33.837Z,92.07
2022-10-19T05:17:34.126Z,92.27
2022-10-19T05:18:33.814Z,92.37
2022-10-19T05:19:33.805Z,92.37
2022-10-19T05:20:33.775Z,92.37
2022-10-19T05:21:33.780Z,92.27
2022-10-19T05:22:33.768Z,92.07
2022-10-19T05:23:33.737Z,92.17
2022-10-19T05:24:33.765Z,91.96
2022-10-19T05:25:33.759Z,91.96
2022-10-19T05:26:33.739Z,92.37
2022-10-19T05:27:34.020Z,92.37
2022-10-19T05:28:33.717Z,91.96
2022-10-19T05:29:33.682Z,91.76
2022-10-19T05:30:33.796Z,92.17
2022-10-19T05:31:33.660Z,91.96
2022-10-19T05:32:33.650Z,91.86
2022-10-19T05:33:33.641Z,91.66
2022-10-19T05:34:33.619Z,91.56
2022-10-19T05:35:33.606Z,91.11
2022-10-19T05:36:33.609Z,90.80
2022-10-19T05:37:33.844Z,90.59
2022-10-19T05:38:33.609Z,89.98
2022-10-19T05:39:33.562Z,89.67
2022-10-19T05:40:33.554Z,89.78
2022-10-19T05:41:33.597Z,90.08
2022-10-19T05:42:33.535Z,90.29
2022-10-19T05:43:33.525Z,90.29
2022-10-19T05:44:33.567Z,90.08
2022-10-19T05:45:33.504Z,89.98
2022-10-19T05:46:33.513Z,89.88
2022-10-19T05:47:33.845Z,89.51
2022-10-19T05:48:33.489Z,89.20
2022-10-19T05:49:33.456Z,89.51
2022-10-19T05:50:33.436Z,90.12
2022-10-19T05:51:33.443Z,90.02
2022-10-19T05:52:33.445Z,89.72
2022-10-19T05:53:33.438Z,89.92
2022-10-19T05:54:33.384Z,90.02
2022-10-19T05:55:33.404Z,90.12
2022-10-19T05:56:33.354Z,90.12
2022-10-19T05:57:33.724Z,90.23
2022-10-19T05:58:33.398Z,90.23
2022-10-19T05:59:33.358Z,90.02
2022-10-19T06:00:33.356Z,90.02
2022-10-19T06:01:33.414Z,90.02
2022-10-19T06:02:33.310Z,90.33
2022-10-19T06:03:33.276Z,90.53
2022-10-19T06:04:33.320Z,90.64
2022-10-19T06:05:33.247Z,90.74
2022-10-19T06:06:33.261Z,90.84
2022-10-19T06:07:33.715Z,91.05
2022-10-19T06:08:33.216Z,91.15
2022-10-19T06:09:33.228Z,91.25
2022-10-19T06:10:33.242Z,91.15
2022-10-19T06:11:33.252Z,91.15
2022-10-19T06:12:33.181Z,91.15
2022-10-19T06:13:33.158Z,90.90
2022-10-19T06:14:33.183Z,90.80
2022-10-19T06:15:33.192Z,90.70
2022-10-19T06:16:33.142Z,90.49
2022-10-19T06:17:33.387Z,90.49
2022-10-19T06:18:33.143Z,90.49
2022-10-19T06:19:33.122Z,90.49
2022-10-19T06:20:33.093Z,90.49
2022-10-19T06:21:33.090Z,90.08
2022-10-19T06:22:33.064Z,89.78
2022-10-19T06:23:33.091Z,90.08
2022-10-19T06:24:33.059Z,90.29
2022-10-19T06:25:33.037Z,90.19
2022-10-19T06:26:33.045Z,89.98
2022-10-19T06:27:33.450Z,90.08
2022-10-19T06:28:33.054Z,90.19
2022-10-19T06:29:32.983Z,90.19
2022-10-19T06:30:33.057Z,90.14
2022-10-19T06:31:32.978Z,89.94
2022-10-19T06:32:32.957Z,89.53
2022-10-19T06:33:32.988Z,89.63
2022-10-19T06:34:32.989Z,89.63
2022-10-19T06:35:32.906Z,89.73
2022-10-19T06:36:32.909Z,89.43
2022-10-19T06:37:33.298Z,88.98
2022-10-19T06:38:32.885Z,89.08
2022-10-19T06:39:32.897Z,88.88
2022-10-19T06:40:32.905Z,88.57
2022-10-19T06:41:32.869Z,88.67
2022-10-19T06:42:32.840Z,88.47
2022-10-19T06:43:32.818Z,88.26
2022-10-19T06:44:32.830Z,88.06
2022-10-19T06:45:35.880Z,87.85
2022-10-19T06:46:32.788Z,87.85
2022-10-19T06:47:33.122Z,88.06
2022-10-19T06:48:32.802Z,88.17
2022-10-19T06:49:32.761Z,88.37
2022-10-19T06:50:32.758Z,87.85
2022-10-19T06:51:32.759Z,87.61
2022-10-19T06:52:33.212Z,87.61
2022-10-19T06:53:32.731Z,87.82
2022-10-19T06:54:32.715Z,87.61
2022-10-19T06:55:32.670Z,87.30
2022-10-19T06:56:32.690Z,86.80
2022-10-19T06:57:32.846Z,86.80
2022-10-19T06:58:32.671Z,86.80
2022-10-19T06:59:32.621Z,86.18
2022-10-19T07:00:32.645Z,86.18
2022-10-19T07:01:32.646Z,86.80
2022-10-19T07:02:33.329Z,87.00
2022-10-19T07:03:32.585Z,86.96
2022-10-19T07:04:32.594Z,86.86
2022-10-19T07:05:32.561Z,86.45
2022-10-19T07:06:32.552Z,86.15
2022-10-19T07:07:32.926Z,86.15
2022-10-19T07:08:32.525Z,86.04
2022-10-19T07:09:32.558Z,85.53
2022-10-19T07:10:32.515Z,85.22
2022-10-19T07:11:32.507Z,85.02
2022-10-19T07:12:32.485Z,85.19
2022-10-19T07:13:32.495Z,85.49
2022-10-19T07:14:32.521Z,85.69
2022-10-19T07:15:32.447Z,85.60
2022-10-19T07:16:32.450Z,84.98
2022-10-19T07:17:32.941Z,85.25
2022-10-19T07:18:32.464Z,85.35
2022-10-19T07:19:32.432Z,85.14
2022-10-19T07:20:32.387Z,84.33
2022-10-19T07:21:32.391Z,83.72
2022-10-19T07:22:32.373Z,83.37
2022-10-19T07:23:32.403Z,83.17
2022-10-19T07:24:32.361Z,83.27
2022-10-19T07:25:32.372Z,83.07
2022-10-19T07:26:32.360Z,82.35
2022-10-19T07:27:37.378Z,80.69
2022-10-19T07:28:33.352Z,81.30
2022-10-19T07:29:32.285Z,82.32
2022-10-19T07:30:32.303Z,82.32
2022-10-19T07:31:32.265Z,82.42
2022-10-19T07:32:32.250Z,82.21
2022-10-19T07:33:32.244Z,82.32
2022-10-19T07:34:32.275Z,81.51
2022-10-19T07:35:32.241Z,81.60
2022-10-19T07:36:32.225Z,81.81
2022-10-19T07:37:32.598Z,81.81
2022-10-19T07:38:32.202Z,81.91
2022-10-19T07:39:32.208Z,81.71
2022-10-19T07:40:32.183Z,81.71
2022-10-19T07:41:32.133Z,81.71
2022-10-19T07:42:32.124Z,81.71
2022-10-19T07:43:32.158Z,81.16
2022-10-19T07:44:32.166Z,81.06
2022-10-19T07:45:32.095Z,80.96
2022-10-19T07:46:32.118Z,79.63
2022-10-19T07:47:32.422Z,78.92
2022-10-19T07:48:32.091Z,79.43
2022-10-19T07:49:32.051Z,79.80
2022-10-19T07:50:32.095Z,79.70
2022-10-19T07:51:32.067Z,79.70
2022-10-19T07:52:34.448Z,79.29
2022-10-19T07:53:32.040Z,76.75
2022-10-19T07:54:31.996Z,76.55
2022-10-19T07:55:31.977Z,75.19
2022-10-19T07:56:31.997Z,75.40
2022-10-19T07:57:31.983Z,76.01
2022-10-19T07:58:31.981Z,76.10
2022-10-19T07:59:31.943Z,76.68
2022-10-19T08:00:31.976Z,75.09
2022-10-19T08:01:31.929Z,76.10
2022-10-19T08:02:39.662Z,75.70
2022-10-19T08:05:32.903Z,74.58
2022-10-19T08:06:31.883Z,73.97
2022-10-19T08:07:31.904Z,72.96
2022-10-19T08:08:31.881Z,73.67
2022-10-19T08:09:52.180Z,73.74
2022-10-19T08:10:32.801Z,73.22
2022-10-19T08:11:31.825Z,72.89
2022-10-19T08:12:32.144Z,72.17
2022-10-19T08:13:31.764Z,72.28
2022-10-19T08:14:31.753Z,71.67
2022-10-19T08:15:31.743Z,71.57
2022-10-19T08:16:31.774Z,72.34
2022-10-19T08:17:31.748Z,71.23
2022-10-19T08:19:36.674Z,70.92
2022-10-19T08:20:31.686Z,71.23
2022-10-19T08:21:31.687Z,70.79
2022-10-19T08:22:31.712Z,69.88
2022-10-19T08:23:31.729Z,69.57
2022-10-19T08:24:31.680Z,70.18
2022-10-19T08:25:31.626Z,69.68
2022-10-19T08:26:31.628Z,69.60
2022-10-19T08:27:31.664Z,70.39
2022-10-19T08:28:31.616Z,69.88
2022-10-19T08:29:31.961Z,70.59
2022-10-19T08:30:31.610Z,71.20
2022-10-19T08:31:31.558Z,71.30
2022-10-19T08:32:31.846Z,69.88
2022-10-19T08:33:31.564Z,69.47
2022-10-19T08:34:31.595Z,69.54
2022-10-19T08:35:31.544Z,69.74
2022-10-19T08:36:31.557Z,69.54
2022-10-19T08:37:45.753Z,68.83
2022-10-19T08:38:32.492Z,69.00
2022-10-19T08:39:31.538Z,67.85
2022-10-19T08:40:31.468Z,67.65
2022-10-19T08:41:31.457Z,66.91
2022-10-19T08:42:31.780Z,65.39
2022-10-19T08:43:31.434Z,66.10
2022-10-19T08:44:31.435Z,65.50
2022-10-19T08:45:31.468Z,65.32
2022-10-19T08:46:31.407Z,66.03
2022-10-19T08:47:31.513Z,65.73
2022-10-19T08:48:31.407Z,65.73
2022-10-19T08:49:31.378Z,65.66
2022-10-19T08:50:31.355Z,66.13
2022-10-19T08:51:31.331Z,65.02
2022-10-19T08:52:34.426Z,65.62
2022-10-19T08:53:31.374Z,65.50
2022-10-19T08:54:31.308Z,65.26
2022-10-19T08:55:31.348Z,64.76
2022-10-19T08:56:51.122Z,64.73
2022-10-19T08:57:32.690Z,64.52
2022-10-19T08:58:31.245Z,63.21
2022-10-19T08:59:31.255Z,64.32
2022-10-19T09:00:31.304Z,63.61
2022-10-19T09:01:33.856Z,63.84
2022-10-19T09:02:32.440Z,62.26
2022-10-19T09:03:37.768Z,62.69
2022-10-19T09:04:32.217Z,63.50
2022-10-19T09:05:31.235Z,64.14
2022-10-19T09:06:31.163Z,63.20
2022-10-19T09:07:31.163Z,62.79
2022-10-19T09:08:31.177Z,63.73
2022-10-19T09:09:31.133Z,64.44
2022-10-19T09:10:31.174Z,63.23
2022-10-19T09:11:31.113Z,64.37
2022-10-19T09:12:31.106Z,65.69
2022-10-19T09:13:41.396Z,65.59
2022-10-19T09:14:32.108Z,64.91
2022-10-19T09:15:31.126Z,66.26
2022-10-19T09:16:31.055Z,66.97
2022-10-19T09:17:31.036Z,67.98
2022-10-19T09:18:31.036Z,68.49
2022-10-19T09:19:31.042Z,67.58
2022-10-19T09:20:31.056Z,67.10
2022-10-19T09:21:36.883Z,67.91
2022-10-19T09:22:32.243Z,68.62
2022-10-19T09:23:30.968Z,68.55
2022-10-19T09:24:30.958Z,68.45
2022-10-19T09:25:30.954Z,68.99
2022-10-19T09:26:30.975Z,69.81
2022-10-19T09:27:30.939Z,70.31
2022-10-19T09:28:36.521Z,70.18
2022-10-19T09:29:31.931Z,69.67
2022-10-19T09:30:30.891Z,69.23
2022-10-19T09:31:31.882Z,68.52
2022-10-19T09:32:30.909Z,67.71
2022-10-19T09:33:30.858Z,68.93
2022-10-19T09:34:30.872Z,67.50
2022-10-19T09:35:30.824Z,67.13
2022-10-19T09:36:49.386Z,68.59
2022-10-19T09:37:31.831Z,68.59
2022-10-19T09:38:30.873Z,68.79
2022-10-19T09:39:30.812Z,69.20
2022-10-19T09:40:30.789Z,69.30
2022-10-19T09:41:30.750Z,68.89
2022-10-19T09:42:30.761Z,68.79
2022-10-19T09:43:30.784Z,68.52
2022-10-19T09:44:30.741Z,69.02
2022-10-19T09:45:30.731Z,69.13
2022-10-19T09:46:30.764Z,69.43
2022-10-19T09:47:30.747Z,69.50
2022-10-19T09:48:30.670Z,69.09
2022-10-19T09:49:30.706Z,68.08
2022-10-19T09:50:30.652Z,67.47
2022-10-19T09:51:30.703Z,67.24
2022-10-19T09:52:30.657Z,67.84
2022-10-19T09:53:30.705Z,67.30
2022-10-19T09:54:30.625Z,66.97
2022-10-19T09:55:30.607Z,67.03
2022-10-19T09:56:30.588Z,66.30
2022-10-19T09:57:30.743Z,65.86
2022-10-19T09:58:33.001Z,65.12
2022-10-19T09:59:30.585Z,63.60
2022-10-19T10:00:30.551Z,62.79
2022-10-19T10:01:39.962Z,62.99
2022-10-19T10:02:31.730Z,60.89
2022-10-19T10:03:30.568Z,59.78
2022-10-19T10:04:30.565Z,60.85
2022-10-19T10:05:30.489Z,60.91
2022-10-19T10:06:30.472Z,62.59
2022-10-19T10:07:30.484Z,63.32
2022-10-19T10:08:30.495Z,63.26
2022-10-19T10:09:30.489Z,63.89
2022-10-19T10:10:30.687Z,64.20
2022-10-19T10:11:30.400Z,64.10
2022-10-19T10:12:30.399Z,64.13
2022-10-19T10:13:30.394Z,64.94
2022-10-19T10:14:30.364Z,65.14
2022-10-19T10:15:30.517Z,65.27
2022-10-19T10:16:30.343Z,66.19
2022-10-19T10:17:30.330Z,66.05
2022-10-19T10:18:30.356Z,66.46
2022-10-19T10:19:30.312Z,66.26
2022-10-19T10:20:30.372Z,65.04
2022-10-19T10:21:30.355Z,65.14
2022-10-19T10:22:30.275Z,65.48
2022-10-19T10:23:30.275Z,66.69
2022-10-19T10:24:30.267Z,65.24
2022-10-19T10:25:30.269Z,65.24
2022-10-19T10:26:30.307Z,65.14
2022-10-19T10:27:30.271Z,64.43
2022-10-19T10:28:30.228Z,65.45
2022-10-19T10:29:30.194Z,65.85
2022-10-19T10:30:30.209Z,64.94
2022-10-19T10:31:30.197Z,65.04
2022-10-19T10:32:30.186Z,65.55
2022-10-19T10:33:45.954Z,64.84
2022-10-19T10:34:45.566Z,64.23
2022-10-19T10:35:31.139Z,64.23
2022-10-19T10:36:30.170Z,64.64
2022-10-19T10:37:30.121Z,64.23
2022-10-19T10:38:30.161Z,64.73
2022-10-19T10:39:30.131Z,64.64
2022-10-19T10:40:30.082Z,63.65
2022-10-19T10:41:30.049Z,62.94
2022-10-19T10:42:30.073Z,63.04
2022-10-19T10:43:30.046Z,62.13
2022-10-19T10:44:30.091Z,62.74
2022-10-19T10:45:30.044Z,63.75
2022-10-19T10:46:30.021Z,64.06
2022-10-19T10:47:30.002Z,63.95
2022-10-19T10:48:29.995Z,63.92
2022-10-19T10:49:29.993Z,63.34
2022-10-19T10:50:29.953Z,63.85
2022-10-19T10:51:29.956Z,64.33
2022-10-19T10:52:30.027Z,62.20
2022-10-19T10:53:29.960Z,62.81
2022-10-19T10:54:29.977Z,62.30
2022-10-19T10:55:29.917Z,59.97
2022-10-19T10:56:29.902Z,59.66
2022-10-19T10:57:29.920Z,60.10
2022-10-19T10:58:30.437Z,60.30
2022-10-19T10:59:29.885Z,60.60
2022-10-19T11:00:29.835Z,60.17
2022-10-19T11:01:30.009Z,60.17
2022-10-19T11:02:29.830Z,59.97
2022-10-19T11:03:29.866Z,59.86
2022-10-19T11:04:29.829Z,59.97
2022-10-19T11:05:29.785Z,60.07
2022-10-19T11:06:29.808Z,60.85
2022-10-19T11:07:29.759Z,59.12
2022-10-19T11:08:29.767Z,57.91
2022-10-19T11:09:29.772Z,57.28
2022-10-19T11:10:29.719Z,56.49
2022-10-19T11:11:29.722Z,56.59
2022-10-19T11:12:34.285Z,57.30
2022-10-19T11:13:30.713Z,58.22
2022-10-19T11:14:29.815Z,57.68
2022-10-19T11:16:29.654Z,57.68
2022-10-19T11:17:29.660Z,58.29
2022-10-19T11:18:29.667Z,58.67
2022-10-19T11:19:29.636Z,58.76
2022-10-19T11:20:29.678Z,58.87
2022-10-19T11:21:29.611Z,58.13
2022-10-19T11:22:29.582Z,57.83
2022-10-19T11:23:29.588Z,57.73
2022-10-19T11:25:29.563Z,57.98
2022-10-19T11:26:29.563Z,59.94
2022-10-19T11:27:29.546Z,60.14
2022-10-19T11:28:29.528Z,59.74
2022-10-19T11:29:29.506Z,59.46
2022-10-19T11:30:29.530Z,59.56
2022-10-19T11:31:29.779Z,59.16
2022-10-19T11:32:29.495Z,58.65
2022-10-19T11:33:29.466Z,59.69
2022-10-19T11:34:29.449Z,59.79
2022-10-19T11:35:29.449Z,59.48
2022-10-19T11:36:29.451Z,59.39
2022-10-19T11:37:29.435Z,58.88
2022-10-19T11:38:30.373Z,59.48
2022-10-19T11:39:29.411Z,59.59
2022-10-19T11:40:29.378Z,59.99
2022-10-19T11:41:29.385Z,59.56
2022-10-19T11:42:29.411Z,59.16
2022-10-19T11:43:29.360Z,58.52
2022-10-19T11:44:29.329Z,58.31
2022-10-19T11:45:29.320Z,58.82
2022-10-19T11:46:29.410Z,58.22
2022-10-19T11:47:29.300Z,57.84
2022-10-19T11:48:29.301Z,59.46
2022-10-19T11:49:29.270Z,58.59
2022-10-19T11:50:31.203Z,57.48
2022-10-19T11:51:29.255Z,58.06
2022-10-19T11:52:29.300Z,56.54
2022-10-19T11:53:29.258Z,56.01
2022-10-19T11:54:29.222Z,56.15
2022-10-19T11:55:29.217Z,53.70
2022-10-19T11:56:39.098Z,49.24
2022-10-19T11:57:30.225Z,47.31
2022-10-19T11:58:34.445Z,49.29
2022-10-19T11:59:30.168Z,50.37
2022-10-19T12:00:38.560Z,52.16
2022-10-19T12:01:30.147Z,53.30
2022-10-19T12:02:29.215Z,53.32
2022-10-19T12:03:29.148Z,52.92
2022-10-19T12:04:29.096Z,52.21
2022-10-19T12:05:29.110Z,53.52
2022-10-19T12:06:29.091Z,53.22
2022-10-19T12:07:29.060Z,53.72
2022-10-19T12:08:29.200Z,53.52
2022-10-19T12:09:29.078Z,53.83
2022-10-19T12:10:29.031Z,54.53
2022-10-19T12:11:29.017Z,54.23
2022-10-19T12:12:29.009Z,54.44
2022-10-19T12:13:29.013Z,54.36
2022-10-19T12:14:29.035Z,53.45
2022-10-19T12:15:28.999Z,54.05
2022-10-19T12:16:28.991Z,54.66
2022-10-19T12:17:28.981Z,54.28
2022-10-19T12:18:28.955Z,53.17
2022-10-19T12:19:28.931Z,53.67
2022-10-19T12:20:28.935Z,53.37
2022-10-19T12:21:28.935Z,53.58
2022-10-19T12:22:28.938Z,53.40
2022-10-19T12:23:28.907Z,53.40
2022-10-19T12:24:28.977Z,53.80
2022-10-19T12:25:28.867Z,53.80
2022-10-19T12:26:28.864Z,54.51
2022-10-19T12:27:28.857Z,55.96
2022-10-19T12:28:28.875Z,56.57
2022-10-19T12:29:28.861Z,57.48
2022-10-19T12:30:28.840Z,57.28
2022-10-19T12:31:28.784Z,57.07
2022-10-19T12:32:28.775Z,57.20
2022-10-19T12:33:28.798Z,57.10
2022-10-19T12:34:28.791Z,57.40
2022-10-19T12:35:28.779Z,57.03
2022-10-19T12:36:28.768Z,56.62
2022-10-19T12:37:28.718Z,56.62
2022-10-19T12:38:28.730Z,56.62
2022-10-19T12:39:28.762Z,56.92
2022-10-19T12:40:28.678Z,56.72
2022-10-19T12:41:28.689Z,56.31
2022-10-19T12:42:28.697Z,55.80
2022-10-19T12:43:28.679Z,56.21
2022-10-19T12:44:28.683Z,56.62
2022-10-19T12:45:28.667Z,56.74
2022-10-19T12:46:28.655Z,57.28
2022-10-19T12:47:28.703Z,58.12
2022-10-19T12:48:28.618Z,58.73
2022-10-19T12:49:28.603Z,57.92
2022-10-19T12:50:28.584Z,57.71
2022-10-19T12:51:28.595Z,57.68
2022-10-19T12:52:28.586Z,57.79
2022-10-19T12:53:28.533Z,57.48
2022-10-19T12:54:28.523Z,57.08
2022-10-19T12:55:28.532Z,56.98
2022-10-19T12:56:28.508Z,56.95
2022-10-19T12:57:28.559Z,56.65
2022-10-19T12:58:28.537Z,55.83
2022-10-19T12:59:28.463Z,55.63